Time;durP1;ratioP1;P1;durP2;ratioP2;P2;SDS_P1;SDS_P2;PMS_P1;PMS_P2;Temp;Humidity;BMP_temperature;BMP_pressure;BME280_temperature;BME280_humidity;BME280_pressure;Samples;Min_cycle;Max_cycle;Signal;HPM_P1;HPM_P2
2023/01/12 00:01:22;;;;;;;1999.90;999.90;;;5.20;99.90;;;;;;5037671;28;20460;-72
2023/01/12 00:03:48;;;;;;;1999.90;999.90;;;5.20;99.90;;;;;;5046613;28;20444;-72
2023/01/12 00:06:18;;;;;;;1999.90;999.90;;;5.20;99.90;;;;;;5046026;28;20448;-72
2023/01/12 00:08:45;;;;;;;1999.90;999.90;;;5.20;99.90;;;;;;5046008;28;20569;-72
2023/01/12 00:11:12;;;;;;;1999.90;999.90;;;5.10;99.90;;;;;;5045466;28;20530;-72
2023/01/12 00:13:39;;;;;;;1999.90;999.90;;;5.10;99.90;;;;;;5046457;28;21286;-72
2023/01/12 00:18:57;;;;;;;1999.90;999.90;;;5.20;99.90;;;;;;5027666;28;20496;-72
2023/01/12 00:21:25;;;;;;;1999.90;999.90;;;5.20;99.90;;;;;;5038099;28;21196;-72
2023/01/12 00:23:53;;;;;;;1999.90;999.90;;;5.30;99.90;;;;;;5046094;28;21237;-72
2023/01/12 00:26:19;;;;;;;1999.90;999.90;;;5.30;99.90;;;;;;5046325;28;20443;-72
2023/01/12 00:28:46;;;;;;;1999.90;999.90;;;5.30;99.90;;;;;;5045861;28;20488;-72
2023/01/12 00:31:14;;;;;;;1999.90;999.90;;;5.40;99.90;;;;;;5036425;28;20441;-72
2023/01/12 00:33:41;;;;;;;1999.90;999.90;;;5.40;99.90;;;;;;5026550;28;20445;-72
2023/01/12 00:36:12;;;;;;;1999.90;999.90;;;5.40;99.90;;;;;;5025520;28;20457;-72
2023/01/12 00:38:41;;;;;;;1999.90;999.90;;;5.40;99.90;;;;;;5026086;28;20476;-72
2023/01/12 00:41:09;;;;;;;1999.90;999.90;;;5.40;99.90;;;;;;5025951;28;20453;-72
2023/01/12 00:46:30;;;;;;;1999.90;999.90;;;5.40;99.90;;;;;;5044088;28;20443;-72
2023/01/12 00:48:57;;;;;;;1999.90;999.90;;;5.40;99.90;;;;;;5046201;28;20496;-72
2023/01/12 00:51:24;;;;;;;1999.90;999.90;;;5.40;99.90;;;;;;5042001;28;20459;-72
2023/01/12 00:53:51;;;;;;;1999.90;999.90;;;5.40;99.90;;;;;;5050230;28;20906;-72
2023/01/12 00:56:18;;;;;;;1999.90;999.90;;;5.40;99.90;;;;;;5040275;28;20506;-72
2023/01/12 00:58:44;;;;;;;1999.90;999.90;;;5.50;99.90;;;;;;5037327;28;20506;-73
2023/01/12 01:01:11;;;;;;;1999.90;999.90;;;5.60;99.90;;;;;;5049989;28;20438;-72
2023/01/12 01:03:39;;;;;;;1999.90;999.90;;;5.70;99.90;;;;;;5050496;28;20443;-73
2023/01/12 01:06:07;;;;;;;1999.90;999.90;;;5.60;99.90;;;;;;5052216;28;20442;-72
2023/01/12 01:08:36;;;;;;;1999.90;999.90;;;5.60;99.90;;;;;;5051972;28;20479;-72
2023/01/12 01:11:05;;;;;;;1999.90;999.90;;;5.60;99.90;;;;;;5052251;28;20444;-72
2023/01/12 01:13:33;;;;;;;1999.90;999.90;;;5.60;99.90;;;;;;5037360;28;20443;-72
2023/01/12 01:16:00;;;;;;;1999.90;999.90;;;5.60;99.90;;;;;;5032030;28;20448;-72
2023/01/12 01:18:27;;;;;;;1999.90;999.90;;;5.60;99.90;;;;;;5031782;28;20445;-72
2023/01/12 01:20:56;;;;;;;1999.90;999.90;;;5.60;99.90;;;;;;5032024;28;20930;-72
2023/01/12 01:23:24;;;;;;;1999.90;999.90;;;5.80;99.90;;;;;;5031553;28;20459;-71
2023/01/12 01:25:51;;;;;;;1999.90;999.90;;;5.90;99.90;;;;;;5044641;28;20432;-72
2023/01/12 01:28:18;;;;;;;1999.90;999.90;;;6.00;99.90;;;;;;5051344;28;20488;-72
2023/01/12 01:30:45;;;;;;;1999.90;999.90;;;5.90;99.90;;;;;;5051430;28;20455;-72
2023/01/12 01:33:13;;;;;;;1999.90;999.90;;;5.90;99.90;;;;;;5051917;28;20436;-71
2023/01/12 01:35:40;;;;;;;1999.90;999.90;;;6.10;99.90;;;;;;5051240;28;20444;-71
2023/01/12 01:38:08;;;;;;;1999.90;999.90;;;6.20;99.90;;;;;;5051165;28;20440;-71
2023/01/12 01:40:34;;;;;;;1999.90;999.90;;;6.40;99.90;;;;;;5051694;28;20440;-72
2023/01/12 01:43:01;;;;;;;1999.90;999.90;;;6.50;99.90;;;;;;5051249;28;20440;-71
2023/01/12 01:45:28;;;;;;;1999.90;999.90;;;6.50;99.90;;;;;;5051611;28;20436;-72
2023/01/12 01:48:00;;;;;;;1999.90;999.90;;;6.60;99.90;;;;;;5051401;28;20443;-72
2023/01/12 01:50:32;;;;;;;1999.90;999.90;;;6.70;99.90;;;;;;5034668;28;20445;-72
2023/01/12 01:53:03;;;;;;;1999.90;999.90;;;6.70;99.90;;;;;;5031668;28;20463;-73
2023/01/12 01:55:34;;;;;;;1999.90;999.90;;;6.70;99.90;;;;;;5031099;28;20507;-72
2023/01/12 01:58:04;;;;;;;1999.90;999.90;;;6.70;99.90;;;;;;5033341;28;20456;-72
2023/01/12 02:00:31;;;;;;;1999.90;999.90;;;6.80;99.90;;;;;;5033339;28;20453;-72
2023/01/12 02:03:02;;;;;;;1999.90;999.90;;;6.90;99.90;;;;;;5031157;28;20456;-72
2023/01/12 02:05:29;;;;;;;1999.90;999.90;;;7.00;99.90;;;;;;5030004;28;20441;-71
2023/01/12 02:08:01;;;;;;;1999.90;999.90;;;7.00;99.90;;;;;;5030485;28;20444;-72
2023/01/12 02:10:28;;;;;;;1999.90;999.90;;;7.00;99.90;;;;;;5030782;28;20841;-72
2023/01/12 02:18:40;;;;;;;1999.90;999.90;;;7.10;99.90;;;;;;5050742;28;20486;-72
2023/01/12 02:21:17;;;;;;;1999.90;999.90;;;7.20;99.90;;;;;;5051012;28;20841;-72
2023/01/12 02:24:11;;;;;;;1999.90;999.90;;;7.20;99.90;;;;;;5051242;28;20458;-72
2023/01/12 02:27:09;;;;;;;1999.90;999.90;;;7.20;99.90;;;;;;5017171;28;20455;-72
2023/01/12 02:30:13;;;;;;;1999.90;999.90;;;7.20;99.90;;;;;;5034467;28;20862;-71
2023/01/12 02:32:51;;;;;;;1999.90;999.90;;;7.20;99.90;;;;;;5030562;28;20456;-72
2023/01/12 02:35:26;;;;;;;1999.90;999.90;;;7.10;99.90;;;;;;5030986;28;20515;-72
2023/01/12 02:38:01;;;;;;;1999.90;999.90;;;7.20;99.90;;;;;;5030080;28;20441;-72
2023/01/12 02:40:36;;;;;;;1999.90;999.90;;;7.20;99.90;;;;;;5030426;28;20944;-73
2023/01/12 02:43:07;;;;;;;1999.90;999.90;;;7.20;99.90;;;;;;5031861;28;20450;-73
2023/01/12 02:45:41;;;;;;;1999.90;999.90;;;7.20;99.90;;;;;;5030430;28;20441;-72
2023/01/12 02:48:15;;;;;;;1999.90;999.90;;;7.30;99.90;;;;;;5030177;28;20484;-72
2023/01/12 02:50:48;;;;;;;1999.90;999.90;;;7.30;99.90;;;;;;5030064;28;20464;-72
2023/01/12 02:53:20;;;;;;;1999.90;999.90;;;7.30;99.90;;;;;;5030228;28;20449;-72
2023/01/12 02:55:48;;;;;;;1999.90;999.90;;;7.30;99.90;;;;;;5034698;28;20847;-72
2023/01/12 02:58:20;;;;;;;1999.90;999.90;;;7.30;99.90;;;;;;5049811;28;20470;-72
2023/01/12 03:00:51;;;;;;;1999.90;999.90;;;7.30;99.90;;;;;;5050018;28;20459;-72
2023/01/12 03:03:20;;;;;;;1999.90;999.90;;;7.30;99.90;;;;;;5049793;28;20454;-72
2023/01/12 03:05:47;;;;;;;1999.90;999.90;;;7.30;99.90;;;;;;5049845;28;20456;-72
2023/01/12 03:08:20;;;;;;;1999.90;999.90;;;7.20;99.90;;;;;;5049395;28;20475;-73
2023/01/12 03:10:59;;;;;;;1999.90;999.90;;;7.20;99.90;;;;;;5033161;28;20488;-72
2023/01/12 03:13:28;;;;;;;1999.90;999.90;;;7.20;99.90;;;;;;5028932;28;20445;-72
2023/01/12 03:15:57;;;;;;;1999.90;999.90;;;7.20;99.90;;;;;;5028867;28;20453;-72
2023/01/12 03:18:30;;;;;;;1999.90;999.90;;;7.20;99.90;;;;;;5028734;28;20465;-72
2023/01/12 03:21:03;;;;;;;1999.90;999.90;;;7.20;99.90;;;;;;5028650;28;20445;-72
2023/01/12 03:23:36;;;;;;;1999.90;999.90;;;7.30;99.90;;;;;;5035624;28;20885;-73
2023/01/12 03:26:04;;;;;;;1999.90;999.90;;;7.30;99.90;;;;;;5048556;28;20491;-72
2023/01/12 03:28:36;;;;;;;1999.90;999.90;;;7.40;99.90;;;;;;5048285;28;20467;-73
2023/01/12 03:31:09;;;;;;;1999.90;999.90;;;7.50;99.90;;;;;;5048807;28;20447;-72
2023/01/12 03:33:38;;;;;;;1999.90;999.90;;;7.50;99.90;;;;;;5048458;28;21419;-73
2023/01/12 03:36:19;;;;;;;1999.90;999.90;;;7.60;99.90;;;;;;5048757;28;20439;-73
2023/01/12 03:38:55;;;;;;;1999.90;999.90;;;7.60;99.90;;;;;;5028621;28;20865;-72
2023/01/12 03:41:28;;;;;;;1999.90;999.90;;;7.60;99.90;;;;;;5028480;28;20453;-72
2023/01/12 03:43:59;;;;;;;1999.90;999.90;;;7.60;99.90;;;;;;5028667;28;20455;-74
2023/01/12 03:46:31;;;;;;;1999.90;999.90;;;7.60;99.90;;;;;;5028595;28;20445;-72
2023/01/12 03:49:08;;;;;;;1999.90;999.90;;;7.50;99.90;;;;;;5028147;28;20999;-72
2023/01/12 03:51:39;;;;;;;1999.90;999.90;;;7.50;99.90;;;;;;5039445;28;20452;-72
2023/01/12 03:54:10;;;;;;;1999.90;999.90;;;7.50;99.90;;;;;;5048135;28;20440;-72
2023/01/12 03:56:38;;;;;;;1999.90;999.90;;;7.50;99.90;;;;;;5047897;28;20448;-72
2023/01/12 03:59:05;;;;;;;1999.90;999.90;;;7.50;99.90;;;;;;5047801;28;21123;-72
2023/01/12 04:01:32;;;;;;;1999.90;999.90;;;7.50;99.90;;;;;;5035780;28;20547;-72
2023/01/12 04:04:01;;;;;;;1999.90;999.90;;;7.50;99.90;;;;;;5044759;28;20456;-72
2023/01/12 04:06:28;;;;;;;1999.90;999.90;;;7.50;99.90;;;;;;5048139;28;20451;-72
2023/01/12 04:08:55;;;;;;;1999.90;999.90;;;7.60;99.90;;;;;;5004814;28;1226493;-73
2023/01/12 04:14:05;;;;;;;1999.90;999.90;;;7.60;99.90;;;;;;5047146;28;20420;-72
2023/01/12 04:16:32;;;;;;;1999.90;999.90;;;7.60;99.90;;;;;;5028807;28;20441;-72
2023/01/12 04:19:00;;;;;;;1999.90;999.90;;;7.70;99.90;;;;;;5028540;28;20556;-71
2023/01/12 04:24:08;;;;;;;1999.90;999.90;;;7.70;99.90;;;;;;5006054;28;20515;-72
2023/01/12 04:26:35;;;;;;;1999.90;999.90;;;7.70;99.90;;;;;;5028798;28;20540;-72
2023/01/12 04:29:02;;;;;;;1999.90;999.90;;;7.70;99.90;;;;;;5039525;28;20488;-72
2023/01/12 04:31:28;;;;;;;1999.90;999.90;;;7.90;99.90;;;;;;5048693;28;20831;-72
2023/01/12 04:33:55;;;;;;;1999.90;999.90;;;7.80;99.90;;;;;;5048309;28;20440;-72
2023/01/12 04:36:23;;;;;;;1999.90;999.90;;;7.80;99.90;;;;;;5048718;28;20444;-72
2023/01/12 04:38:50;;;;;;;1999.90;999.90;;;7.80;99.90;;;;;;5048178;28;20495;-71
2023/01/12 04:41:17;;;;;;;1999.90;999.90;;;7.80;99.90;;;;;;5048992;28;20458;-72
2023/01/12 04:43:45;;;;;;;1999.90;999.90;;;7.80;99.90;;;;;;5029266;28;20451;-72
2023/01/12 04:46:12;;;;;;;1999.90;999.90;;;7.80;99.90;;;;;;5028936;28;21089;-71
2023/01/12 04:48:39;;;;;;;1999.90;999.90;;;7.80;99.90;;;;;;5028515;28;20490;-72
2023/01/12 04:51:06;;;;;;;1999.90;999.90;;;7.80;99.90;;;;;;5041679;28;20480;-72
2023/01/12 04:53:34;;;;;;;1999.90;999.90;;;7.80;99.90;;;;;;5048819;28;20440;-73
2023/01/12 04:56:04;;;;;;;1999.90;999.90;;;7.80;99.90;;;;;;5047569;28;20456;-72
2023/01/12 04:58:31;;;;;;;1999.90;999.90;;;7.80;99.90;;;;;;5048264;28;20479;-72
2023/01/12 05:00:58;;;;;;;1999.90;999.90;;;7.80;99.90;;;;;;5048223;28;20448;-72
2023/01/12 05:03:25;;;;;;;1999.90;999.90;;;7.80;99.90;;;;;;5048830;28;20454;-73
2023/01/12 05:05:51;;;;;;;1999.90;999.90;;;7.80;99.90;;;;;;5048720;28;20953;-73
2023/01/12 05:11:04;;;;;;;1999.90;999.90;;;7.90;99.90;;;;;;5031324;28;20582;-73
2023/01/12 05:13:31;;;;;;;1999.90;999.90;;;7.90;99.90;;;;;;5028644;28;20535;-73
2023/01/12 05:16:08;;;;;;;1999.90;999.90;;;7.90;99.90;;;;;;5028918;28;20831;-73
2023/01/12 05:18:35;;;;;;;1999.90;999.90;;;7.90;99.90;;;;;;5027151;28;20469;-72
2023/01/12 05:21:02;;;;;;;1999.90;999.90;;;8.00;99.90;;;;;;5027095;28;20447;-72
2023/01/12 05:23:29;;;;;;;1999.90;999.90;;;8.00;99.90;;;;;;5027160;28;20476;-72
2023/01/12 05:25:59;;;;;;;1999.90;999.90;;;8.00;99.90;;;;;;5027420;28;20445;-72
2023/01/12 05:28:28;;;;;;;1999.90;999.90;;;8.00;99.90;;;;;;5027568;28;20465;-71
2023/01/12 05:30:55;;;;;;;1999.90;999.90;;;8.10;99.90;;;;;;5027879;28;20866;-71
2023/01/12 05:33:22;;;;;;;1999.90;999.90;;;8.10;99.90;;;;;;5028401;28;20444;-71
2023/01/12 05:35:49;;;;;;;1999.90;999.90;;;8.20;99.90;;;;;;5030071;28;20457;-71
2023/01/12 05:38:16;;;;;;;1999.90;999.90;;;8.20;99.90;;;;;;5046151;28;20474;-69
2023/01/12 05:40:42;;;;;;;1999.90;999.90;;;8.20;99.90;;;;;;5050626;28;20446;-71
2023/01/12 05:46:03;;;;;;;1999.90;999.90;;;8.20;99.90;;;;;;5050552;28;20432;-71
2023/01/12 05:48:30;;;;;;;1999.90;999.90;;;8.20;99.90;;;;;;5050807;28;20471;-71
2023/01/12 05:50:59;;;;;;;1999.90;999.90;;;8.20;99.90;;;;;;5045283;28;20860;-72
2023/01/12 05:53:27;;;;;;;1999.90;999.90;;;8.30;99.90;;;;;;5031316;28;20461;-71
2023/01/12 05:55:54;;;;;;;1999.90;999.90;;;8.30;99.90;;;;;;5031013;28;21181;-70
2023/01/12 05:58:20;;;;;;;1999.90;999.90;;;8.40;99.90;;;;;;5031013;28;20469;-71
2023/01/12 06:00:47;;;;;;;1999.90;999.90;;;8.40;99.90;;;;;;5034997;28;20451;-71
2023/01/12 06:03:16;;;;;;;1999.90;999.90;;;8.30;99.90;;;;;;5029470;28;20440;-70
2023/01/12 06:05:42;;;;;;;1999.90;999.90;;;8.30;99.90;;;;;;5027436;28;20816;-71
2023/01/12 06:08:09;;;;;;;1999.90;999.90;;;8.30;99.90;;;;;;5027174;28;20962;-72
2023/01/12 06:10:38;;;;;;;1999.90;999.90;;;8.30;99.90;;;;;;5027777;28;21090;-71
2023/01/12 06:16:03;;;;;;;1999.90;999.90;;;8.30;99.90;;;;;;5012147;28;20437;-71
2023/01/12 06:18:33;;;;;;;1999.90;999.90;;;8.20;99.90;;;;;;5043993;28;20543;-69
2023/01/12 06:21:00;;;;;;;1999.90;999.90;;;8.20;99.90;;;;;;5050749;28;20446;-69
2023/01/12 06:23:27;;;;;;;1999.90;999.90;;;8.20;99.90;;;;;;5050098;28;20443;-71
2023/01/12 06:25:54;;;;;;;1999.90;999.90;;;8.20;99.90;;;;;;5050843;28;20440;-71
2023/01/12 06:28:21;;;;;;;1999.90;999.90;;;8.20;99.90;;;;;;5050203;28;20468;-70
2023/01/12 06:30:55;;;;;;;1999.90;999.90;;;8.20;99.90;;;;;;5049006;28;20488;-70
2023/01/12 06:33:23;;;;;;;1999.90;999.90;;;8.30;99.90;;;;;;5050076;28;20542;-70
2023/01/12 06:35:51;;;;;;;1999.90;999.90;;;8.30;99.90;;;;;;5050714;28;20456;-71
2023/01/12 06:38:19;;;;;;;1999.90;999.90;;;8.40;99.90;;;;;;5050208;28;20468;-71
2023/01/12 06:40:46;;;;;;;1999.90;999.90;;;8.40;99.90;;;;;;5050354;28;20440;-71
2023/01/12 06:43:13;;;;;;;1999.90;999.90;;;8.40;99.90;;;;;;5050534;28;20569;-70
2023/01/12 06:45:40;;;;;;;1999.90;999.90;;;8.40;99.90;;;;;;5049406;28;20458;-71
2023/01/12 06:48:06;;;;;;;1999.90;999.90;;;8.40;99.90;;;;;;5048067;28;20448;-71
2023/01/12 06:50:34;;;;;;;1999.90;999.90;;;8.40;99.90;;;;;;5049464;28;20479;-70
2023/01/12 06:53:04;;;;;;;1999.90;999.90;;;8.40;99.90;;;;;;5047920;28;20452;-70
2023/01/12 06:55:31;;;;;;;1999.90;999.90;;;8.40;99.90;;;;;;5023646;28;20554;-73
2023/01/12 06:58:02;;;;;;;1999.90;999.90;;;8.50;99.90;;;;;;5028476;28;20455;-71
2023/01/12 07:00:28;;;;;;;1999.90;999.90;;;8.50;99.90;;;;;;5028487;28;20913;-72
2023/01/12 07:02:55;;;;;;;1999.90;999.90;;;8.50;99.90;;;;;;5030591;28;20449;-72
2023/01/12 07:05:22;;;;;;;1999.90;999.90;;;8.50;99.90;;;;;;5029339;28;20441;-72
2023/01/12 07:07:49;;;;;;;1999.90;999.90;;;8.50;99.90;;;;;;5029837;28;20460;-71
2023/01/12 07:10:17;;;;;;;1999.90;999.90;;;8.50;99.90;;;;;;5029456;28;20676;-72
2023/01/12 07:12:44;;;;;;;1999.90;999.90;;;8.50;99.90;;;;;;5029892;28;20449;-72
2023/01/12 07:15:11;;;;;;;1999.90;999.90;;;8.60;99.90;;;;;;5029789;28;20532;-71
2023/01/12 07:17:39;;;;;;;1999.90;999.90;;;8.60;99.90;;;;;;5029994;28;20453;-72
2023/01/12 07:20:06;;;;;;;1999.90;999.90;;;8.60;99.90;;;;;;5037485;28;20475;-71
2023/01/12 07:22:33;;;;;;;1999.90;999.90;;;8.70;99.90;;;;;;5050314;28;20470;-69
2023/01/12 07:25:00;;;;;;;1999.90;999.90;;;8.70;99.90;;;;;;5049662;28;20865;-70
2023/01/12 07:27:28;;;;;;;1999.90;999.90;;;8.80;99.90;;;;;;5049687;28;20458;-70
2023/01/12 07:29:55;;;;;;;1999.90;999.90;;;8.80;99.90;;;;;;5049030;28;20490;-71
2023/01/12 07:32:26;;;;;;;1999.90;999.90;;;8.80;99.90;;;;;;5049421;28;20454;-70
2023/01/12 07:34:53;;;;;;;1999.90;999.90;;;8.80;99.90;;;;;;5049591;28;20452;-70
2023/01/12 07:37:19;;;;;;;1999.90;999.90;;;8.90;99.90;;;;;;5047965;28;21025;-71
2023/01/12 07:39:46;;;;;;;1999.90;999.90;;;8.90;99.90;;;;;;5049442;28;20482;-71
2023/01/12 07:42:25;;;;;;;1999.90;999.90;;;8.90;99.90;;;;;;5049457;28;20972;-73
2023/01/12 07:44:53;;;;;;;1999.90;999.90;;;9.00;99.90;;;;;;5049774;28;20506;-70
2023/01/12 07:47:21;;;;;;;1999.90;999.90;;;9.00;99.90;;;;;;5049829;28;20534;-70
2023/01/12 07:49:48;;;;;;;1999.90;999.90;;;9.10;99.90;;;;;;5046408;28;20472;-71
2023/01/12 07:52:15;;;;;;;1999.90;999.90;;;9.10;99.90;;;;;;5029778;28;20459;-71
2023/01/12 07:54:42;;;;;;;1999.90;999.90;;;9.10;99.90;;;;;;5029484;28;20472;-72
2023/01/12 07:57:10;;;;;;;1999.90;999.90;;;9.20;99.90;;;;;;5029279;28;20441;-71
2023/01/12 07:59:36;;;;;;;1999.90;999.90;;;9.20;99.90;;;;;;5029054;28;20475;-71
2023/01/12 08:02:05;;;;;;;1999.90;999.90;;;9.20;99.90;;;;;;5045636;28;20448;-70
2023/01/12 08:04:32;;;;;;;1999.90;999.90;;;9.30;99.90;;;;;;5049188;28;20481;-70
2023/01/12 08:06:59;;;;;;;1999.90;999.90;;;9.30;99.90;;;;;;5049131;28;20456;-71
2023/01/12 08:09:26;;;;;;;1999.90;999.90;;;9.30;99.90;;;;;;5048239;28;21013;-71
2023/01/12 08:11:53;;;;;;;1999.90;999.90;;;9.30;99.90;;;;;;5049232;28;20480;-71
2023/01/12 08:14:27;;;;;;;1999.90;999.90;;;9.30;99.90;;;;;;5045180;28;20865;-71
2023/01/12 08:17:00;;;;;;;1999.90;999.90;;;9.30;99.90;;;;;;5029161;28;20453;-71
2023/01/12 08:19:35;;;;;;;1999.90;999.90;;;9.30;99.90;;;;;;5028586;28;20475;-71
2023/01/12 08:22:04;;;;;;;1999.90;999.90;;;9.30;99.90;;;;;;5029329;28;20459;-72
2023/01/12 08:24:35;;;;;;;1999.90;999.90;;;9.40;99.90;;;;;;5029032;28;20445;-71
2023/01/12 08:27:05;;;;;;;1999.90;999.90;;;9.40;99.90;;;;;;5029255;28;20449;-71
2023/01/12 08:29:38;;;;;;;1999.90;999.90;;;9.40;99.90;;;;;;5028718;28;20472;-68
2023/01/12 08:32:06;;;;;;;1999.90;999.90;;;9.50;99.90;;;;;;5029774;28;20495;-69
2023/01/12 08:34:36;;;;;;;1999.90;999.90;;;9.50;99.90;;;;;;5029170;28;20474;-69
2023/01/12 08:37:08;;;;;;;1999.90;999.90;;;9.50;99.90;;;;;;5028845;28;20457;-68
2023/01/12 08:39:35;;;;;;;1999.90;999.90;;;9.40;99.90;;;;;;5028783;28;20484;-68
2023/01/12 08:42:04;;;;;;;1999.90;999.90;;;9.40;99.90;;;;;;5028751;28;20841;-68
2023/01/12 08:44:33;;;;;;;1999.90;999.90;;;9.40;99.90;;;;;;5028642;28;20532;-69
2023/01/12 08:47:00;;;;;;;1999.90;999.90;;;9.50;99.90;;;;;;5030005;28;20457;-68
2023/01/12 08:49:28;;;;;;;1999.90;999.90;;;9.40;99.90;;;;;;5028504;28;20504;-68
2023/01/12 08:51:57;;;;;;;1999.90;999.90;;;9.40;99.90;;;;;;5028477;28;20571;-69
2023/01/12 08:54:24;;;;;;;1999.90;999.90;;;9.40;99.90;;;;;;5028863;28;20453;-69
2023/01/12 08:56:52;;;;;;;1999.90;999.90;;;9.40;99.90;;;;;;5028697;28;20459;-68
2023/01/12 08:59:19;;;;;;;1999.90;999.90;;;9.40;99.90;;;;;;5028021;28;20653;-68
2023/01/12 09:01:46;;;;;;;1999.90;999.90;;;9.50;99.90;;;;;;5028840;28;20459;-68
2023/01/12 09:04:13;;;;;;;1999.90;999.90;;;9.50;99.90;;;;;;5042001;28;20882;-67
2023/01/12 09:06:42;;;;;;;1999.90;999.90;;;9.50;99.90;;;;;;5048424;28;20451;-68
2023/01/12 09:09:12;;;;;;;1999.90;999.90;;;9.50;99.90;;;;;;5050244;28;20907;-68
2023/01/12 09:11:41;;;;;;;1999.90;999.90;;;9.50;99.90;;;;;;5052276;28;20574;-68
2023/01/12 09:14:09;;;;;;;1999.90;999.90;;;9.50;99.90;;;;;;5049142;28;20522;-68
2023/01/12 09:16:37;;;;;;;1999.90;999.90;;;9.50;99.90;;;;;;5028793;28;20539;-69
2023/01/12 09:19:04;;;;;;;1999.90;999.90;;;9.60;99.90;;;;;;5031760;28;20496;-67
2023/01/12 09:21:31;;;;;;;1999.90;999.90;;;9.60;99.90;;;;;;5027634;28;20943;-68
2023/01/12 09:23:58;;;;;;;1999.90;999.90;;;9.60;99.90;;;;;;5032356;28;20449;-68
2023/01/12 09:26:30;;;;;;;1999.90;999.90;;;9.70;99.90;;;;;;5031784;28;20832;-69
2023/01/12 09:28:58;;;;;;;1999.90;999.90;;;9.70;99.90;;;;;;5051363;28;20476;-69
2023/01/12 09:31:26;;;;;;;1999.90;999.90;;;9.70;99.90;;;;;;5051874;28;20583;-68
2023/01/12 09:33:53;;;;;;;1999.90;999.90;;;9.70;99.90;;;;;;5052124;28;20448;-66
2023/01/12 09:36:22;;;;;;;1999.90;999.90;;;9.70;99.90;;;;;;5024298;28;20471;-67
2023/01/12 09:38:50;;;;;;;1999.90;999.90;;;9.80;99.90;;;;;;5020604;28;20473;-67
2023/01/12 09:46:57;;;;;;;1999.90;999.90;;;9.80;99.90;;;;;;5032468;28;20536;-69
2023/01/12 09:47:07;;;;;;;1999.90;999.90;;;9.90;99.90;;;;;;5033488;28;21005;-68
2023/01/12 09:49:39;;;;;;;1999.90;999.90;;;9.90;99.90;;;;;;5051132;28;20470;-68
2023/01/12 09:52:13;;;;;;;1999.90;999.90;;;10.00;99.90;;;;;;5051826;28;20490;-67
2023/01/12 09:54:40;;;;;;;1999.90;999.90;;;10.00;99.90;;;;;;5037053;28;20445;-68
2023/01/12 09:57:18;;;;;;;1999.90;999.90;;;10.00;99.90;;;;;;5023269;28;20447;-68
2023/01/12 09:59:57;;;;;;;1999.90;999.90;;;10.10;99.90;;;;;;5030723;28;20487;-67
2023/01/12 10:02:25;;;;;;;1999.90;999.90;;;10.20;99.90;;;;;;5050417;28;21231;-67
2023/01/12 10:04:56;;;;;;;1999.90;999.90;;;10.20;99.90;;;;;;5051272;28;20444;-67
2023/01/12 10:07:23;;;;;;;1999.90;999.90;;;10.30;99.90;;;;;;5051226;28;20475;-67
2023/01/12 10:09:50;;;;;;;1999.90;999.90;;;10.30;99.90;;;;;;5050626;28;20476;-69
2023/01/12 10:12:26;;;;;;;1999.90;999.90;;;10.40;99.90;;;;;;5050113;28;20514;-69
2023/01/12 10:15:23;;;;;;;1999.90;999.90;;;10.50;99.90;;;;;;5028686;28;20453;-69
2023/01/12 10:17:55;;;;;;;1999.90;999.90;;;10.60;99.90;;;;;;5030897;28;20547;-68
2023/01/12 10:20:29;;;;;;;1999.90;999.90;;;10.60;99.90;;;;;;5030749;28;20453;-69
2023/01/12 10:23:01;;;;;;;1999.90;999.90;;;10.60;99.90;;;;;;5030923;28;20463;-69
2023/01/12 10:25:34;;;;;;;1999.90;999.90;;;10.70;99.90;;;;;;5031311;28;20455;-69
2023/01/12 10:28:07;;;;;;;1999.90;999.90;;;10.70;99.90;;;;;;5031113;28;20453;-69
2023/01/12 10:30:36;;;;;;;1999.90;999.90;;;10.70;99.90;;;;;;5031011;28;20445;-69
2023/01/12 10:33:11;;;;;;;1999.90;999.90;;;10.80;99.90;;;;;;5031055;28;20550;-69
2023/01/12 10:35:49;;;;;;;1999.90;999.90;;;10.90;99.90;;;;;;5031222;28;20531;-69
2023/01/12 10:38:22;;;;;;;1999.90;999.90;;;10.80;99.90;;;;;;5030730;28;20472;-69
2023/01/12 10:41:06;;;;;;;1999.90;999.90;;;10.90;99.90;;;;;;5030566;28;20492;-69
2023/01/12 10:43:33;;;;;;;1999.90;999.90;;;11.00;99.90;;;;;;5044324;28;20452;-69
2023/01/12 10:46:09;;;;;;;1999.90;999.90;;;11.10;99.90;;;;;;5050008;28;21042;-69
2023/01/12 10:48:37;;;;;;;1999.90;999.90;;;11.00;99.90;;;;;;5050194;28;20467;-69
2023/01/12 10:51:06;;;;;;;1999.90;999.90;;;11.00;99.90;;;;;;5050432;28;20475;-69
2023/01/12 10:53:41;;;;;;;1999.90;999.90;;;10.90;99.90;;;;;;5050520;28;20448;-69
2023/01/12 10:56:14;;;;;;;1999.90;999.90;;;10.80;99.90;;;;;;5050092;28;20473;-68
2023/01/12 10:58:43;;;;;;;1999.90;999.90;;;10.70;99.90;;;;;;5048703;28;20838;-69
2023/01/12 11:01:14;;;;;;;1999.90;999.90;;;10.70;99.90;;;;;;5050408;28;20983;-69
2023/01/12 11:03:41;;;;;;;1999.90;999.90;;;10.80;99.90;;;;;;5050266;28;20471;-69
2023/01/12 11:06:16;;;;;;;1999.90;999.90;;;10.80;99.90;;;;;;5050342;28;20506;-69
2023/01/12 11:08:43;;;;;;;1999.90;999.90;;;10.80;99.90;;;;;;5023199;28;20468;-70
2023/01/12 11:11:32;;;;;;;1999.90;999.90;;;10.90;99.90;;;;;;5029762;28;20500;-69
2023/01/12 11:14:01;;;;;;;1999.90;999.90;;;10.90;99.90;;;;;;5025484;28;20444;-69
2023/01/12 11:16:32;;;;;;;1999.90;999.90;;;10.90;99.90;;;;;;5049893;28;20509;-69
2023/01/12 11:19:16;;;;;;;1999.90;999.90;;;10.80;99.90;;;;;;5049450;28;20460;-68
2023/01/12 11:21:48;;;;;;;1999.90;999.90;;;10.80;99.90;;;;;;5048877;28;20448;-69
2023/01/12 11:24:25;;;;;;;1999.90;999.90;;;10.80;99.90;;;;;;5050192;28;20455;-69
2023/01/12 11:26:57;;;;;;;1999.90;999.90;;;10.70;99.90;;;;;;5050415;28;20526;-68
2023/01/12 11:29:34;;;;;;;1999.90;999.90;;;10.70;99.90;;;;;;5049369;28;20468;-67
2023/01/12 11:32:07;;;;;;;1999.90;999.90;;;10.70;99.90;;;;;;5031768;28;21042;-67
2023/01/12 11:34:39;;;;;;;1999.90;999.90;;;10.70;99.90;;;;;;5030107;28;20433;-69
2023/01/12 11:37:11;;;;;;;1999.90;999.90;;;10.70;99.90;;;;;;5030097;28;21000;-67
2023/01/12 11:39:40;;;;;;;1999.90;999.90;;;10.80;99.90;;;;;;5029146;28;20477;-68
2023/01/12 11:45:05;;;;;;;1999.90;999.90;;;11.20;99.90;;;;;;5029499;28;20420;-68
2023/01/12 11:47:38;;;;;;;1999.90;999.90;;;11.40;99.90;;;;;;5040211;28;20586;-69
2023/01/12 11:50:11;;;;;;;1999.90;999.90;;;11.50;99.90;;;;;;5048897;28;20484;-68
2023/01/12 11:52:38;;;;;;;1999.90;999.90;;;11.50;99.90;;;;;;5049354;28;20862;-67
2023/01/12 11:55:06;;;;;;;1999.90;999.90;;;11.40;99.90;;;;;;5049313;28;20462;-67
2023/01/12 11:57:42;;;;;;;1999.90;999.90;;;11.30;99.90;;;;;;5049124;28;20448;-68
2023/01/12 12:00:26;;;;;;;1999.90;999.90;;;11.20;99.90;;;;;;5047663;28;20468;-68
2023/01/12 12:03:04;;;;;;;1999.90;999.90;;;11.20;99.90;;;;;;5029292;28;20456;-67
2023/01/12 12:05:41;;;;;;;1999.90;999.90;;;11.30;99.90;;;;;;5029165;28;21013;-68
2023/01/12 12:08:19;;;;;;;1999.90;999.90;;;11.40;99.90;;;;;;5029130;28;20449;-68
2023/01/12 12:10:51;;;;;;;1999.90;999.90;;;11.60;99.90;;;;;;5028936;28;20460;-68
2023/01/12 12:13:31;;;;;;;1999.90;999.90;;;11.70;99.90;;;;;;5029430;28;20888;-68
2023/01/12 12:16:14;;;;;;;1999.90;999.90;;;11.70;99.90;;;;;;5045719;28;20447;-68
2023/01/12 12:18:57;;;;;;;1999.90;999.90;;;11.50;99.90;;;;;;5048551;28;20486;-67
2023/01/12 12:21:42;;;;;;;1999.90;999.90;;;11.70;99.90;;;;;;5048720;28;20811;-68
2023/01/12 12:24:24;;;;;;;1999.90;999.90;;;11.90;99.90;;;;;;5028428;28;20449;-66
2023/01/12 12:26:58;;;;;;;1999.90;999.90;;;12.10;99.90;;;;;;5028877;28;20539;-68
2023/01/12 12:29:39;;;;;;;1999.90;999.90;;;12.10;99.90;;;;;;5028494;28;20464;-68
2023/01/12 12:32:17;;;;;;;1999.90;999.90;;;12.20;99.90;;;;;;5048464;28;20487;-68
2023/01/12 12:35:19;;;;;;;1999.90;999.90;;;12.10;99.90;;;;;;5048912;28;20440;-68
2023/01/12 12:38:02;;;;;;;1999.90;999.90;;;12.00;99.90;;;;;;5033281;28;20455;-68
2023/01/12 12:46:19;;;;;;;1999.90;999.90;;;12.20;99.90;;;;;;5017442;28;20805;-67
2023/01/12 12:48:55;;;;;;;1999.90;999.90;;;12.20;99.90;;;;;;5031832;28;20475;-67
2023/01/12 12:51:24;;;;;;;1999.90;999.90;;;12.00;99.90;;;;;;5029637;28;20433;-68
2023/01/12 12:53:54;;;;;;;1999.90;999.90;;;11.90;99.90;;;;;;5031358;28;20444;-67
2023/01/12 12:56:23;;;;;;;1999.90;999.90;;;11.80;99.90;;;;;;5030719;28;20448;-69
2023/01/12 12:58:51;;;;;;;1999.90;999.90;;;11.70;99.90;;;;;;5030761;28;20531;-68